sensor_id;sensor_type;location;lat;lon;timestamp;P1;durP1;ratioP1;P2;durP2;ratioP2
74810;SDS011;63340;48.404;-4.506;2023-03-23T00:01:26;9.25;;;7.00;;
74810;SDS011;63340;48.404;-4.506;2023-03-23T00:03:55;6.00;;;4.50;;
74810;SDS011;63340;48.404;-4.506;2023-03-23T00:06:22;9.25;;;7.75;;
74810;SDS011;63340;48.404;-4.506;2023-03-23T00:08:50;5.25;;;5.25;;
74810;SDS011;63340;48.404;-4.506;2023-03-23T00:11:22;4.50;;;2.75;;
74810;SDS011;63340;48.404;-4.506;2023-03-23T00:13:51;3.00;;;3.00;;
74810;SDS011;63340;48.404;-4.506;2023-03-23T00:16:21;4.00;;;2.00;;
74810;SDS011;63340;48.404;-4.506;2023-03-23T00:18:54;5.00;;;3.25;;
74810;SDS011;63340;48.404;-4.506;2023-03-23T00:21:21;4.50;;;2.00;;
74810;SDS011;63340;48.404;-4.506;2023-03-23T00:23:59;6.50;;;3.25;;
74810;SDS011;63340;48.404;-4.506;2023-03-23T00:26:29;3.75;;;1.75;;
74810;SDS011;63340;48.404;-4.506;2023-03-23T00:28:58;5.75;;;5.00;;
74810;SDS011;63340;48.404;-4.506;2023-03-23T00:31:25;7.00;;;4.00;;
74810;SDS011;63340;48.404;-4.506;2023-03-23T00:33:56;3.00;;;3.00;;
74810;SDS011;63340;48.404;-4.506;2023-03-23T00:36:23;6.00;;;5.00;;
74810;SDS011;63340;48.404;-4.506;2023-03-23T00:38:49;8.75;;;4.25;;
74810;SDS011;63340;48.404;-4.506;2023-03-23T00:41:15;7.25;;;5.50;;
74810;SDS011;63340;48.404;-4.506;2023-03-23T00:43:40;7.25;;;5.25;;
74810;SDS011;63340;48.404;-4.506;2023-03-23T00:46:06;7.00;;;6.00;;
74810;SDS011;63340;48.404;-4.506;2023-03-23T00:48:34;6.25;;;4.25;;
74810;SDS011;63340;48.404;-4.506;2023-03-23T00:51:09;5.25;;;4.50;;
74810;SDS011;63340;48.404;-4.506;2023-03-23T00:53:36;12.50;;;7.00;;
74810;SDS011;63340;48.404;-4.506;2023-03-23T00:56:01;7.50;;;6.00;;
74810;SDS011;63340;48.404;-4.506;2023-03-23T00:58:27;6.25;;;5.25;;
74810;SDS011;63340;48.404;-4.506;2023-03-23T01:00:53;7.00;;;6.75;;
74810;SDS011;63340;48.404;-4.506;2023-03-23T01:03:18;9.25;;;4.75;;
74810;SDS011;63340;48.404;-4.506;2023-03-23T01:05:44;6.25;;;4.25;;
74810;SDS011;63340;48.404;-4.506;2023-03-23T01:08:12;7.50;;;5.50;;
74810;SDS011;63340;48.404;-4.506;2023-03-23T01:10:38;6.00;;;5.25;;
74810;SDS011;63340;48.404;-4.506;2023-03-23T01:13:04;7.25;;;5.00;;
74810;SDS011;63340;48.404;-4.506;2023-03-23T01:15:30;9.25;;;7.25;;
74810;SDS011;63340;48.404;-4.506;2023-03-23T01:17:56;5.00;;;5.00;;
74810;SDS011;63340;48.404;-4.506;2023-03-23T01:20:22;4.75;;;4.50;;
74810;SDS011;63340;48.404;-4.506;2023-03-23T01:22:48;5.00;;;4.50;;
74810;SDS011;63340;48.404;-4.506;2023-03-23T01:25:14;6.50;;;4.50;;
74810;SDS011;63340;48.404;-4.506;2023-03-23T01:27:40;5.50;;;3.75;;
74810;SDS011;63340;48.404;-4.506;2023-03-23T01:30:07;5.00;;;3.25;;
74810;SDS011;63340;48.404;-4.506;2023-03-23T01:32:36;5.75;;;4.50;;
74810;SDS011;63340;48.404;-4.506;2023-03-23T01:35:01;4.75;;;3.50;;
74810;SDS011;63340;48.404;-4.506;2023-03-23T01:37:27;8.00;;;5.00;;
74810;SDS011;63340;48.404;-4.506;2023-03-23T01:39:55;4.50;;;3.75;;
74810;SDS011;63340;48.404;-4.506;2023-03-23T01:42:22;9.00;;;3.75;;
74810;SDS011;63340;48.404;-4.506;2023-03-23T01:47:14;5.75;;;4.00;;
74810;SDS011;63340;48.404;-4.506;2023-03-23T01:49:45;5.00;;;4.00;;
74810;SDS011;63340;48.404;-4.506;2023-03-23T01:52:18;5.75;;;5.00;;
74810;SDS011;63340;48.404;-4.506;2023-03-23T01:54:48;4.25;;;4.00;;
74810;SDS011;63340;48.404;-4.506;2023-03-23T01:57:16;5.75;;;5.25;;
74810;SDS011;63340;48.404;-4.506;2023-03-23T01:59:45;7.00;;;6.00;;
74810;SDS011;63340;48.404;-4.506;2023-03-23T02:02:12;6.00;;;4.75;;
74810;SDS011;63340;48.404;-4.506;2023-03-23T02:04:40;6.00;;;4.00;;
74810;SDS011;63340;48.404;-4.506;2023-03-23T02:07:06;5.00;;;4.50;;
74810;SDS011;63340;48.404;-4.506;2023-03-23T02:09:32;8.75;;;7.25;;
74810;SDS011;63340;48.404;-4.506;2023-03-23T02:11:58;6.00;;;3.25;;
74810;SDS011;63340;48.404;-4.506;2023-03-23T02:14:24;9.75;;;8.00;;
74810;SDS011;63340;48.404;-4.506;2023-03-23T02:16:55;6.75;;;4.00;;
74810;SDS011;63340;48.404;-4.506;2023-03-23T02:19:31;6.75;;;5.50;;
74810;SDS011;63340;48.404;-4.506;2023-03-23T02:27:55;6.00;;;4.00;;
74810;SDS011;63340;48.404;-4.506;2023-03-23T02:35:53;10.00;;;6.25;;
74810;SDS011;63340;48.404;-4.506;2023-03-23T02:39:17;9.50;;;6.25;;
74810;SDS011;63340;48.404;-4.506;2023-03-23T02:41:25;6.50;;;5.75;;
74810;SDS011;63340;48.404;-4.506;2023-03-23T02:43:55;8.75;;;7.50;;
74810;SDS011;63340;48.404;-4.506;2023-03-23T02:46:21;10.25;;;9.25;;
74810;SDS011;63340;48.404;-4.506;2023-03-23T02:48:48;6.50;;;5.75;;
74810;SDS011;63340;48.404;-4.506;2023-03-23T02:51:16;8.50;;;8.50;;
74810;SDS011;63340;48.404;-4.506;2023-03-23T02:53:44;13.75;;;7.25;;
74810;SDS011;63340;48.404;-4.506;2023-03-23T02:56:10;8.00;;;7.00;;
74810;SDS011;63340;48.404;-4.506;2023-03-23T02:58:38;14.00;;;10.25;;
74810;SDS011;63340;48.404;-4.506;2023-03-23T03:04:05;12.25;;;10.50;;
74810;SDS011;63340;48.404;-4.506;2023-03-23T03:09:46;12.75;;;7.25;;
74810;SDS011;63340;48.404;-4.506;2023-03-23T03:12:30;13.25;;;8.25;;
74810;SDS011;63340;48.404;-4.506;2023-03-23T03:20:37;6.25;;;5.00;;
74810;SDS011;63340;48.404;-4.506;2023-03-23T03:23:08;9.00;;;8.75;;
74810;SDS011;63340;48.404;-4.506;2023-03-23T03:25:38;11.00;;;8.25;;
74810;SDS011;63340;48.404;-4.506;2023-03-23T03:28:05;10.50;;;8.00;;
74810;SDS011;63340;48.404;-4.506;2023-03-23T03:30:31;15.75;;;11.00;;
74810;SDS011;63340;48.404;-4.506;2023-03-23T03:33:01;10.75;;;8.75;;
74810;SDS011;63340;48.404;-4.506;2023-03-23T03:35:28;16.00;;;10.00;;
74810;SDS011;63340;48.404;-4.506;2023-03-23T03:37:55;18.25;;;13.75;;
74810;SDS011;63340;48.404;-4.506;2023-03-23T03:40:31;10.75;;;8.00;;
74810;SDS011;63340;48.404;-4.506;2023-03-23T03:42:57;10.00;;;8.00;;
74810;SDS011;63340;48.404;-4.506;2023-03-23T03:45:22;16.00;;;13.75;;
74810;SDS011;63340;48.404;-4.506;2023-03-23T03:47:48;9.50;;;7.75;;
74810;SDS011;63340;48.404;-4.506;2023-03-23T03:50:13;10.75;;;9.25;;
74810;SDS011;63340;48.404;-4.506;2023-03-23T03:52:39;12.50;;;10.25;;
74810;SDS011;63340;48.404;-4.506;2023-03-23T03:55:05;9.75;;;6.25;;
74810;SDS011;63340;48.404;-4.506;2023-03-23T03:57:32;15.00;;;11.50;;
74810;SDS011;63340;48.404;-4.506;2023-03-23T03:59:58;16.00;;;14.00;;
74810;SDS011;63340;48.404;-4.506;2023-03-23T04:02:23;14.00;;;9.50;;
74810;SDS011;63340;48.404;-4.506;2023-03-23T04:04:49;10.25;;;8.25;;
74810;SDS011;63340;48.404;-4.506;2023-03-23T04:07:16;14.50;;;10.50;;
74810;SDS011;63340;48.404;-4.506;2023-03-23T04:09:43;11.25;;;8.25;;
74810;SDS011;63340;48.404;-4.506;2023-03-23T04:12:11;13.75;;;10.00;;
74810;SDS011;63340;48.404;-4.506;2023-03-23T04:14:37;9.75;;;9.75;;
74810;SDS011;63340;48.404;-4.506;2023-03-23T04:17:02;10.00;;;9.00;;
74810;SDS011;63340;48.404;-4.506;2023-03-23T04:19:28;14.25;;;13.00;;
74810;SDS011;63340;48.404;-4.506;2023-03-23T04:21:53;15.25;;;9.50;;
74810;SDS011;63340;48.404;-4.506;2023-03-23T04:24:20;16.75;;;14.75;;
74810;SDS011;63340;48.404;-4.506;2023-03-23T04:26:49;10.25;;;7.50;;
74810;SDS011;63340;48.404;-4.506;2023-03-23T04:29:17;21.00;;;14.25;;
74810;SDS011;63340;48.404;-4.506;2023-03-23T04:31:43;13.25;;;10.75;;
74810;SDS011;63340;48.404;-4.506;2023-03-23T04:34:10;15.50;;;11.00;;
74810;SDS011;63340;48.404;-4.506;2023-03-23T04:36:38;17.25;;;15.50;;
74810;SDS011;63340;48.404;-4.506;2023-03-23T04:39:04;13.75;;;11.50;;
74810;SDS011;63340;48.404;-4.506;2023-03-23T04:41:31;15.50;;;13.50;;
74810;SDS011;63340;48.404;-4.506;2023-03-23T04:43:57;16.00;;;12.75;;
74810;SDS011;63340;48.404;-4.506;2023-03-23T04:46:27;17.50;;;15.50;;
74810;SDS011;63340;48.404;-4.506;2023-03-23T04:48:54;18.25;;;14.00;;
74810;SDS011;63340;48.404;-4.506;2023-03-23T04:51:19;19.25;;;14.50;;
74810;SDS011;63340;48.404;-4.506;2023-03-23T04:53:45;14.75;;;10.75;;
74810;SDS011;63340;48.404;-4.506;2023-03-23T04:56:10;17.50;;;14.50;;
74810;SDS011;63340;48.404;-4.506;2023-03-23T04:58:38;17.75;;;12.75;;
74810;SDS011;63340;48.404;-4.506;2023-03-23T05:01:04;14.00;;;11.50;;
74810;SDS011;63340;48.404;-4.506;2023-03-23T05:03:30;18.00;;;11.25;;
74810;SDS011;63340;48.404;-4.506;2023-03-23T05:05:55;16.50;;;13.50;;
74810;SDS011;63340;48.404;-4.506;2023-03-23T05:08:21;15.50;;;11.00;;
74810;SDS011;63340;48.404;-4.506;2023-03-23T05:10:52;16.50;;;11.00;;
74810;SDS011;63340;48.404;-4.506;2023-03-23T05:13:19;17.00;;;14.00;;
74810;SDS011;63340;48.404;-4.506;2023-03-23T05:15:45;14.25;;;10.00;;
74810;SDS011;63340;48.404;-4.506;2023-03-23T05:18:10;7.25;;;3.00;;
74810;SDS011;63340;48.404;-4.506;2023-03-23T05:20:36;17.50;;;11.75;;
74810;SDS011;63340;48.404;-4.506;2023-03-23T05:23:01;16.25;;;13.25;;
74810;SDS011;63340;48.404;-4.506;2023-03-23T05:25:27;16.50;;;11.50;;
74810;SDS011;63340;48.404;-4.506;2023-03-23T05:27:52;15.75;;;14.00;;
74810;SDS011;63340;48.404;-4.506;2023-03-23T05:30:19;9.75;;;9.50;;
74810;SDS011;63340;48.404;-4.506;2023-03-23T05:32:46;14.75;;;11.00;;
74810;SDS011;63340;48.404;-4.506;2023-03-23T05:35:15;12.00;;;10.25;;
74810;SDS011;63340;48.404;-4.506;2023-03-23T05:37:42;12.50;;;11.00;;
74810;SDS011;63340;48.404;-4.506;2023-03-23T05:40:08;11.50;;;10.00;;
74810;SDS011;63340;48.404;-4.506;2023-03-23T05:42:36;12.75;;;8.50;;
74810;SDS011;63340;48.404;-4.506;2023-03-23T05:45:03;16.25;;;10.75;;
74810;SDS011;63340;48.404;-4.506;2023-03-23T05:47:29;15.75;;;11.00;;
74810;SDS011;63340;48.404;-4.506;2023-03-23T05:49:56;13.25;;;10.75;;
74810;SDS011;63340;48.404;-4.506;2023-03-23T05:52:22;10.50;;;8.50;;
74810;SDS011;63340;48.404;-4.506;2023-03-23T05:54:49;14.50;;;14.00;;
74810;SDS011;63340;48.404;-4.506;2023-03-23T05:57:15;11.00;;;9.75;;
74810;SDS011;63340;48.404;-4.506;2023-03-23T05:59:40;15.25;;;11.50;;
74810;SDS011;63340;48.404;-4.506;2023-03-23T06:02:06;13.25;;;11.00;;
74810;SDS011;63340;48.404;-4.506;2023-03-23T06:04:31;12.25;;;9.75;;
74810;SDS011;63340;48.404;-4.506;2023-03-23T06:06:59;10.00;;;9.50;;
74810;SDS011;63340;48.404;-4.506;2023-03-23T06:09:25;15.00;;;11.75;;
74810;SDS011;63340;48.404;-4.506;2023-03-23T06:11:51;13.50;;;10.25;;
74810;SDS011;63340;48.404;-4.506;2023-03-23T06:14:16;12.75;;;10.50;;
74810;SDS011;63340;48.404;-4.506;2023-03-23T06:16:42;18.25;;;9.75;;
74810;SDS011;63340;48.404;-4.506;2023-03-23T06:19:08;13.50;;;11.75;;
74810;SDS011;63340;48.404;-4.506;2023-03-23T06:21:33;14.75;;;11.50;;
74810;SDS011;63340;48.404;-4.506;2023-03-23T06:23:59;7.75;;;6.50;;
74810;SDS011;63340;48.404;-4.506;2023-03-23T06:26:30;11.00;;;8.75;;
74810;SDS011;63340;48.404;-4.506;2023-03-23T06:28:58;10.75;;;9.25;;
74810;SDS011;63340;48.404;-4.506;2023-03-23T06:31:24;8.00;;;7.25;;
74810;SDS011;63340;48.404;-4.506;2023-03-23T06:33:52;11.00;;;8.25;;
74810;SDS011;63340;48.404;-4.506;2023-03-23T06:36:18;11.75;;;9.25;;
74810;SDS011;63340;48.404;-4.506;2023-03-23T06:38:44;13.50;;;10.00;;
74810;SDS011;63340;48.404;-4.506;2023-03-23T06:41:10;12.75;;;9.00;;
74810;SDS011;63340;48.404;-4.506;2023-03-23T06:43:36;15.00;;;8.75;;
74810;SDS011;63340;48.404;-4.506;2023-03-23T06:46:04;14.75;;;9.50;;
74810;SDS011;63340;48.404;-4.506;2023-03-23T06:48:30;16.50;;;12.50;;
74810;SDS011;63340;48.404;-4.506;2023-03-23T06:50:56;13.50;;;9.00;;
74810;SDS011;63340;48.404;-4.506;2023-03-23T06:53:22;18.75;;;14.25;;
74810;SDS011;63340;48.404;-4.506;2023-03-23T06:55:48;10.50;;;9.75;;
74810;SDS011;63340;48.404;-4.506;2023-03-23T06:58:13;14.00;;;10.50;;
74810;SDS011;63340;48.404;-4.506;2023-03-23T07:00:39;14.75;;;12.00;;
74810;SDS011;63340;48.404;-4.506;2023-03-23T07:03:05;10.25;;;8.50;;
74810;SDS011;63340;48.404;-4.506;2023-03-23T07:05:31;19.75;;;13.00;;
74810;SDS011;63340;48.404;-4.506;2023-03-23T07:07:58;10.00;;;9.25;;
74810;SDS011;63340;48.404;-4.506;2023-03-23T07:10:24;18.75;;;13.00;;
74810;SDS011;63340;48.404;-4.506;2023-03-23T07:12:50;12.75;;;10.50;;
74810;SDS011;63340;48.404;-4.506;2023-03-23T07:15:15;15.75;;;11.50;;
74810;SDS011;63340;48.404;-4.506;2023-03-23T07:17:41;20.50;;;12.00;;
74810;SDS011;63340;48.404;-4.506;2023-03-23T07:20:07;15.25;;;12.50;;
74810;SDS011;63340;48.404;-4.506;2023-03-23T07:22:33;17.00;;;11.50;;
74810;SDS011;63340;48.404;-4.506;2023-03-23T07:24:59;13.00;;;10.25;;
74810;SDS011;63340;48.404;-4.506;2023-03-23T07:27:25;11.00;;;8.50;;
74810;SDS011;63340;48.404;-4.506;2023-03-23T07:29:51;18.75;;;14.25;;
74810;SDS011;63340;48.404;-4.506;2023-03-23T07:32:16;14.50;;;10.75;;
74810;SDS011;63340;48.404;-4.506;2023-03-23T07:34:41;20.25;;;14.50;;
74810;SDS011;63340;48.404;-4.506;2023-03-23T07:37:07;17.00;;;14.50;;
74810;SDS011;63340;48.404;-4.506;2023-03-23T07:39:33;11.50;;;9.00;;
74810;SDS011;63340;48.404;-4.506;2023-03-23T07:41:59;14.00;;;10.25;;
74810;SDS011;63340;48.404;-4.506;2023-03-23T07:44:25;10.75;;;10.00;;
74810;SDS011;63340;48.404;-4.506;2023-03-23T07:46:51;14.00;;;11.00;;
74810;SDS011;63340;48.404;-4.506;2023-03-23T07:49:17;11.75;;;8.50;;
74810;SDS011;63340;48.404;-4.506;2023-03-23T07:51:43;12.50;;;10.25;;
74810;SDS011;63340;48.404;-4.506;2023-03-23T07:54:09;19.50;;;12.00;;
74810;SDS011;63340;48.404;-4.506;2023-03-23T07:56:35;10.25;;;9.00;;
74810;SDS011;63340;48.404;-4.506;2023-03-23T07:59:02;16.50;;;13.00;;
74810;SDS011;63340;48.404;-4.506;2023-03-23T08:01:29;12.75;;;11.00;;
74810;SDS011;63340;48.404;-4.506;2023-03-23T08:03:55;20.25;;;12.50;;
74810;SDS011;63340;48.404;-4.506;2023-03-23T08:06:22;11.00;;;9.50;;
74810;SDS011;63340;48.404;-4.506;2023-03-23T08:08:51;11.00;;;9.00;;
74810;SDS011;63340;48.404;-4.506;2023-03-23T08:11:18;10.50;;;8.50;;
74810;SDS011;63340;48.404;-4.506;2023-03-23T08:13:44;9.25;;;8.00;;
74810;SDS011;63340;48.404;-4.506;2023-03-23T08:16:09;16.50;;;11.25;;
74810;SDS011;63340;48.404;-4.506;2023-03-23T08:18:36;14.00;;;10.75;;
74810;SDS011;63340;48.404;-4.506;2023-03-23T08:21:03;11.25;;;10.00;;
74810;SDS011;63340;48.404;-4.506;2023-03-23T08:23:29;12.75;;;10.75;;
74810;SDS011;63340;48.404;-4.506;2023-03-23T08:25:56;14.00;;;11.00;;
74810;SDS011;63340;48.404;-4.506;2023-03-23T08:28:22;10.00;;;9.25;;
74810;SDS011;63340;48.404;-4.506;2023-03-23T08:30:48;11.00;;;8.50;;
74810;SDS011;63340;48.404;-4.506;2023-03-23T08:33:14;14.00;;;10.75;;
74810;SDS011;63340;48.404;-4.506;2023-03-23T08:35:41;15.25;;;9.50;;
74810;SDS011;63340;48.404;-4.506;2023-03-23T08:38:08;14.75;;;11.50;;
74810;SDS011;63340;48.404;-4.506;2023-03-23T08:40:34;15.00;;;13.00;;
74810;SDS011;63340;48.404;-4.506;2023-03-23T08:42:59;10.50;;;9.50;;
74810;SDS011;63340;48.404;-4.506;2023-03-23T08:45:25;13.25;;;11.75;;
74810;SDS011;63340;48.404;-4.506;2023-03-23T08:47:51;12.75;;;10.00;;
74810;SDS011;63340;48.404;-4.506;2023-03-23T08:50:23;12.75;;;9.75;;
74810;SDS011;63340;48.404;-4.506;2023-03-23T08:52:53;14.25;;;12.00;;
74810;SDS011;63340;48.404;-4.506;2023-03-23T08:55:20;20.00;;;13.00;;
74810;SDS011;63340;48.404;-4.506;2023-03-23T08:57:46;16.75;;;12.00;;
74810;SDS011;63340;48.404;-4.506;2023-03-23T09:00:14;14.00;;;11.00;;
74810;SDS011;63340;48.404;-4.506;2023-03-23T09:02:48;15.25;;;11.75;;
74810;SDS011;63340;48.404;-4.506;2023-03-23T09:05:15;9.00;;;8.25;;
74810;SDS011;63340;48.404;-4.506;2023-03-23T09:07:43;12.75;;;9.00;;
74810;SDS011;63340;48.404;-4.506;2023-03-23T09:10:11;11.50;;;9.75;;
74810;SDS011;63340;48.404;-4.506;2023-03-23T09:12:38;16.75;;;12.25;;
74810;SDS011;63340;48.404;-4.506;2023-03-23T09:15:04;12.00;;;11.25;;
74810;SDS011;63340;48.404;-4.506;2023-03-23T09:17:33;10.00;;;9.00;;
74810;SDS011;63340;48.404;-4.506;2023-03-23T09:20:00;12.00;;;9.25;;
74810;SDS011;63340;48.404;-4.506;2023-03-23T09:22:25;13.50;;;9.75;;
74810;SDS011;63340;48.404;-4.506;2023-03-23T09:24:50;12.25;;;9.25;;
74810;SDS011;63340;48.404;-4.506;2023-03-23T09:27:16;14.25;;;11.25;;
74810;SDS011;63340;48.404;-4.506;2023-03-23T09:29:42;19.00;;;11.50;;
74810;SDS011;63340;48.404;-4.506;2023-03-23T09:32:09;14.25;;;10.25;;
74810;SDS011;63340;48.404;-4.506;2023-03-23T09:34:35;11.25;;;8.75;;
74810;SDS011;63340;48.404;-4.506;2023-03-23T09:37:03;14.75;;;10.00;;
74810;SDS011;63340;48.404;-4.506;2023-03-23T09:39:29;15.00;;;9.50;;
74810;SDS011;63340;48.404;-4.506;2023-03-23T09:44:38;25.50;;;21.25;;
74810;SDS011;63340;48.404;-4.506;2023-03-23T09:47:30;17.75;;;16.25;;
74810;SDS011;63340;48.404;-4.506;2023-03-23T09:50:03;19.25;;;14.50;;
74810;SDS011;63340;48.404;-4.506;2023-03-23T09:55:10;18.25;;;12.00;;
74810;SDS011;63340;48.404;-4.506;2023-03-23T10:00:37;14.50;;;12.75;;
74810;SDS011;63340;48.404;-4.506;2023-03-23T10:03:16;13.25;;;10.00;;
74810;SDS011;63340;48.404;-4.506;2023-03-23T10:05:49;10.75;;;10.00;;
74810;SDS011;63340;48.404;-4.506;2023-03-23T10:08:18;9.25;;;9.00;;
74810;SDS011;63340;48.404;-4.506;2023-03-23T10:13:35;12.75;;;11.00;;
74810;SDS011;63340;48.404;-4.506;2023-03-23T10:16:07;16.00;;;11.00;;
74810;SDS011;63340;48.404;-4.506;2023-03-23T10:21:30;12.25;;;9.50;;
74810;SDS011;63340;48.404;-4.506;2023-03-23T10:24:03;20.00;;;18.25;;
74810;SDS011;63340;48.404;-4.506;2023-03-23T10:29:28;10.25;;;9.00;;
74810;SDS011;63340;48.404;-4.506;2023-03-23T10:32:00;14.25;;;13.25;;
74810;SDS011;63340;48.404;-4.506;2023-03-23T10:37:30;16.75;;;10.00;;
74810;SDS011;63340;48.404;-4.506;2023-03-23T10:40:03;11.50;;;9.75;;
74810;SDS011;63340;48.404;-4.506;2023-03-23T10:42:36;14.75;;;11.00;;
74810;SDS011;63340;48.404;-4.506;2023-03-23T10:47:55;11.00;;;7.00;;
74810;SDS011;63340;48.404;-4.506;2023-03-23T10:50:31;16.50;;;9.75;;
74810;SDS011;63340;48.404;-4.506;2023-03-23T10:52:59;13.50;;;10.50;;
74810;SDS011;63340;48.404;-4.506;2023-03-23T10:55:35;7.75;;;6.75;;
74810;SDS011;63340;48.404;-4.506;2023-03-23T10:58:11;12.00;;;9.00;;
74810;SDS011;63340;48.404;-4.506;2023-03-23T11:00:48;7.50;;;7.50;;
74810;SDS011;63340;48.404;-4.506;2023-03-23T11:08:22;16.00;;;10.75;;
74810;SDS011;63340;48.404;-4.506;2023-03-23T11:13:20;9.50;;;8.25;;
74810;SDS011;63340;48.404;-4.506;2023-03-23T11:15:47;10.25;;;7.75;;
74810;SDS011;63340;48.404;-4.506;2023-03-23T11:18:22;8.50;;;7.00;;
74810;SDS011;63340;48.404;-4.506;2023-03-23T11:20:51;11.75;;;7.75;;
74810;SDS011;63340;48.404;-4.506;2023-03-23T11:26:30;11.00;;;7.00;;
74810;SDS011;63340;48.404;-4.506;2023-03-23T11:35:43;5.75;;;5.75;;
74810;SDS011;63340;48.404;-4.506;2023-03-23T11:38:43;7.25;;;6.75;;
74810;SDS011;63340;48.404;-4.506;2023-03-23T11:41:19;8.50;;;7.00;;
74810;SDS011;63340;48.404;-4.506;2023-03-23T11:43:56;14.75;;;12.00;;
74810;SDS011;63340;48.404;-4.506;2023-03-23T11:49:50;15.00;;;10.25;;
74810;SDS011;63340;48.404;-4.506;2023-03-23T11:58:00;10.25;;;8.25;;
74810;SDS011;63340;48.404;-4.506;2023-03-23T12:00:36;11.75;;;8.25;;
74810;SDS011;63340;48.404;-4.506;2023-03-23T12:06:19;14.50;;;10.25;;
74810;SDS011;63340;48.404;-4.506;2023-03-23T12:09:25;10.50;;;8.00;;
74810;SDS011;63340;48.404;-4.506;2023-03-23T12:12:05;14.75;;;11.25;;
74810;SDS011;63340;48.404;-4.506;2023-03-23T12:20:15;12.00;;;9.50;;
74810;SDS011;63340;48.404;-4.506;2023-03-23T12:23:13;15.25;;;12.25;;
74810;SDS011;63340;48.404;-4.506;2023-03-23T12:26:01;10.00;;;6.25;;
74810;SDS011;63340;48.404;-4.506;2023-03-23T12:34:50;11.25;;;7.00;;
74810;SDS011;63340;48.404;-4.506;2023-03-23T12:40:19;8.25;;;8.25;;
74810;SDS011;63340;48.404;-4.506;2023-03-23T12:54:43;15.00;;;10.50;;
74810;SDS011;63340;48.404;-4.506;2023-03-23T12:58:04;14.25;;;11.25;;
74810;SDS011;63340;48.404;-4.506;2023-03-23T13:01:16;13.25;;;8.25;;
74810;SDS011;63340;48.404;-4.506;2023-03-23T13:11:41;9.75;;;8.50;;
74810;SDS011;63340;48.404;-4.506;2023-03-23T13:22:56;6.75;;;5.50;;
74810;SDS011;63340;48.404;-4.506;2023-03-23T13:25:39;14.50;;;8.50;;
74810;SDS011;63340;48.404;-4.506;2023-03-23T13:28:25;8.00;;;7.00;;
74810;SDS011;63340;48.404;-4.506;2023-03-23T13:31:03;8.75;;;6.25;;
74810;SDS011;63340;48.404;-4.506;2023-03-23T13:33:37;7.25;;;7.25;;
74810;SDS011;63340;48.404;-4.506;2023-03-23T13:36:13;7.00;;;6.75;;
74810;SDS011;63340;48.404;-4.506;2023-03-23T13:38:49;6.25;;;5.25;;
74810;SDS011;63340;48.404;-4.506;2023-03-23T13:41:17;8.00;;;5.25;;
74810;SDS011;63340;48.404;-4.506;2023-03-23T13:43:46;8.75;;;6.50;;
74810;SDS011;63340;48.404;-4.506;2023-03-23T13:48:48;5.25;;;4.75;;
74810;SDS011;63340;48.404;-4.506;2023-03-23T13:56:57;7.75;;;6.00;;
74810;SDS011;63340;48.404;-4.506;2023-03-23T14:01:51;7.25;;;5.25;;
74810;SDS011;63340;48.404;-4.506;2023-03-23T14:04:18;7.75;;;7.50;;
74810;SDS011;63340;48.404;-4.506;2023-03-23T14:06:45;10.00;;;7.75;;
74810;SDS011;63340;48.404;-4.506;2023-03-23T14:09:18;12.50;;;8.00;;
74810;SDS011;63340;48.404;-4.506;2023-03-23T14:12:02;6.00;;;3.75;;
74810;SDS011;63340;48.404;-4.506;2023-03-23T14:14:56;13.00;;;8.50;;
74810;SDS011;63340;48.404;-4.506;2023-03-23T14:17:31;9.50;;;7.25;;
74810;SDS011;63340;48.404;-4.506;2023-03-23T14:20:04;10.25;;;9.50;;
74810;SDS011;63340;48.404;-4.506;2023-03-23T14:22:35;11.25;;;7.25;;
74810;SDS011;63340;48.404;-4.506;2023-03-23T14:27:39;13.75;;;10.75;;
74810;SDS011;63340;48.404;-4.506;2023-03-23T14:30:07;11.50;;;9.00;;
74810;SDS011;63340;48.404;-4.506;2023-03-23T14:32:41;9.25;;;8.50;;
74810;SDS011;63340;48.404;-4.506;2023-03-23T14:35:11;8.75;;;8.75;;
74810;SDS011;63340;48.404;-4.506;2023-03-23T14:37:57;8.75;;;7.75;;
74810;SDS011;63340;48.404;-4.506;2023-03-23T14:40:25;12.75;;;9.50;;
74810;SDS011;63340;48.404;-4.506;2023-03-23T14:42:51;4.50;;;4.00;;
74810;SDS011;63340;48.404;-4.506;2023-03-23T14:45:20;9.25;;;7.50;;
74810;SDS011;63340;48.404;-4.506;2023-03-23T14:47:50;10.00;;;7.00;;
74810;SDS011;63340;48.404;-4.506;2023-03-23T14:53:09;7.50;;;6.50;;
74810;SDS011;63340;48.404;-4.506;2023-03-23T14:55:45;5.75;;;5.75;;
74810;SDS011;63340;48.404;-4.506;2023-03-23T14:58:13;14.25;;;9.25;;
74810;SDS011;63340;48.404;-4.506;2023-03-23T15:00:42;12.50;;;8.00;;
74810;SDS011;63340;48.404;-4.506;2023-03-23T15:03:14;7.00;;;6.50;;
74810;SDS011;63340;48.404;-4.506;2023-03-23T15:05:50;9.75;;;6.25;;
74810;SDS011;63340;48.404;-4.506;2023-03-23T15:08:24;8.50;;;7.75;;
74810;SDS011;63340;48.404;-4.506;2023-03-23T15:11:02;10.75;;;8.75;;
74810;SDS011;63340;48.404;-4.506;2023-03-23T15:13:32;10.00;;;8.25;;
74810;SDS011;63340;48.404;-4.506;2023-03-23T15:16:04;9.50;;;6.25;;
74810;SDS011;63340;48.404;-4.506;2023-03-23T15:18:34;8.75;;;7.00;;
74810;SDS011;63340;48.404;-4.506;2023-03-23T15:21:12;10.75;;;8.00;;
74810;SDS011;63340;48.404;-4.506;2023-03-23T15:23:48;13.00;;;11.25;;
74810;SDS011;63340;48.404;-4.506;2023-03-23T15:36:34;3.50;;;2.75;;
74810;SDS011;63340;48.404;-4.506;2023-03-23T15:39:00;8.00;;;6.25;;
74810;SDS011;63340;48.404;-4.506;2023-03-23T15:41:30;5.00;;;4.25;;
74810;SDS011;63340;48.404;-4.506;2023-03-23T15:44:09;5.00;;;4.50;;
74810;SDS011;63340;48.404;-4.506;2023-03-23T15:46:47;2.00;;;2.00;;
74810;SDS011;63340;48.404;-4.506;2023-03-23T15:49:17;3.00;;;3.00;;
74810;SDS011;63340;48.404;-4.506;2023-03-23T15:51:43;5.75;;;4.00;;
74810;SDS011;63340;48.404;-4.506;2023-03-23T15:54:12;3.00;;;2.00;;
74810;SDS011;63340;48.404;-4.506;2023-03-23T15:56:40;2.00;;;1.50;;
74810;SDS011;63340;48.404;-4.506;2023-03-23T15:59:14;3.00;;;3.00;;
74810;SDS011;63340;48.404;-4.506;2023-03-23T16:02:05;1.75;;;1.50;;
74810;SDS011;63340;48.404;-4.506;2023-03-23T16:04:39;1.00;;;1.00;;
74810;SDS011;63340;48.404;-4.506;2023-03-23T16:07:05;2.25;;;1.00;;
74810;SDS011;63340;48.404;-4.506;2023-03-23T16:09:32;1.75;;;1.25;;
74810;SDS011;63340;48.404;-4.506;2023-03-23T16:11:57;0.00;;;0.00;;
74810;SDS011;63340;48.404;-4.506;2023-03-23T16:14:23;0.50;;;0.00;;
74810;SDS011;63340;48.404;-4.506;2023-03-23T16:16:48;1.00;;;0.00;;
74810;SDS011;63340;48.404;-4.506;2023-03-23T16:19:16;0.00;;;0.00;;
74810;SDS011;63340;48.404;-4.506;2023-03-23T16:21:47;0.00;;;0.00;;
74810;SDS011;63340;48.404;-4.506;2023-03-23T16:24:12;0.50;;;0.25;;
74810;SDS011;63340;48.404;-4.506;2023-03-23T16:26:38;0.00;;;0.00;;
74810;SDS011;63340;48.404;-4.506;2023-03-23T16:29:11;1.00;;;1.00;;
74810;SDS011;63340;48.404;-4.506;2023-03-23T16:31:38;1.00;;;1.00;;
74810;SDS011;63340;48.404;-4.506;2023-03-23T16:34:03;1.25;;;1.25;;
74810;SDS011;63340;48.404;-4.506;2023-03-23T16:36:29;0.25;;;0.25;;
74810;SDS011;63340;48.404;-4.506;2023-03-23T16:38:54;0.00;;;0.00;;
74810;SDS011;63340;48.404;-4.506;2023-03-23T16:41:20;1.00;;;0.00;;
74810;SDS011;63340;48.404;-4.506;2023-03-23T16:43:45;0.00;;;0.00;;
74810;SDS011;63340;48.404;-4.506;2023-03-23T16:46:11;0.00;;;0.00;;
74810;SDS011;63340;48.404;-4.506;2023-03-23T16:48:37;0.00;;;0.00;;
74810;SDS011;63340;48.404;-4.506;2023-03-23T16:51:03;0.00;;;0.00;;
74810;SDS011;63340;48.404;-4.506;2023-03-23T16:53:29;0.00;;;0.00;;
74810;SDS011;63340;48.404;-4.506;2023-03-23T16:55:55;0.00;;;0.00;;
74810;SDS011;63340;48.404;-4.506;2023-03-23T16:58:21;0.00;;;0.00;;
74810;SDS011;63340;48.404;-4.506;2023-03-23T17:00:48;0.00;;;0.00;;
74810;SDS011;63340;48.404;-4.506;2023-03-23T17:03:16;0.00;;;0.00;;